createdAt,value
2023-01-23T00:02:13.593Z,102863.38
2023-01-23T00:05:16.819Z,102859.94
2023-01-23T00:08:21.651Z,102862.53
2023-01-23T00:11:28.446Z,102861.66
2023-01-23T00:14:32.827Z,102864.25
2023-01-23T00:17:35.877Z,102862.53
2023-01-23T00:20:39.123Z,102862.53
2023-01-23T00:23:44.294Z,102859.13
2023-01-23T00:26:47.521Z,102860.81
2023-01-23T00:29:55.418Z,102861.69
2023-01-23T00:32:58.530Z,102862.53
2023-01-23T00:36:03.097Z,102858.25
2023-01-23T00:39:15.485Z,102858.25
2023-01-23T00:42:20.324Z,102859.09
2023-01-23T00:45:25.087Z,102857.38
2023-01-23T00:48:28.263Z,102853.13
2023-01-23T00:51:32.705Z,102862.53
2023-01-23T00:54:38.268Z,102867.66
2023-01-23T00:57:41.347Z,102871.09
2023-01-23T01:00:45.795Z,102877.09
2023-01-23T01:03:48.958Z,102875.34
2023-01-23T01:06:51.952Z,102877.09
2023-01-23T01:09:57.734Z,102883.94
2023-01-23T01:13:03.582Z,102893.34
2023-01-23T01:16:09.454Z,102883.94
2023-01-23T01:19:16.648Z,102894.22
2023-01-23T01:22:20.130Z,102890.78
2023-01-23T01:25:23.599Z,102881.34
2023-01-23T01:28:30.234Z,102883.09
2023-01-23T01:31:36.050Z,102891.63
2023-01-23T01:34:39.108Z,102900.22
2023-01-23T01:37:42.838Z,102903.63
2023-01-23T01:40:48.097Z,102901.06
2023-01-23T01:43:53.306Z,102901.91
2023-01-23T01:46:58.262Z,102903.63
2023-01-23T01:50:06.065Z,102908.78
2023-01-23T01:53:09.263Z,102913.06
2023-01-23T01:56:15.332Z,102911.34
2023-01-23T01:59:20.052Z,102919.91
2023-01-23T02:02:29.712Z,102918.19
2023-01-23T02:05:37.609Z,102913.91
2023-01-23T02:08:49.116Z,102920.75
2023-01-23T02:11:52.366Z,102917.34
2023-01-23T02:14:59.554Z,102914.78
2023-01-23T02:18:04.151Z,102917.34
2023-01-23T02:21:10.030Z,102914.78
2023-01-23T02:24:27.025Z,102910.53
2023-01-23T02:27:31.391Z,102913.94
2023-01-23T02:30:34.713Z,102919.06
2023-01-23T02:33:53.934Z,102913.03
2023-01-23T02:36:57.451Z,102919.06
2023-01-23T02:40:02.772Z,102928.47
2023-01-23T02:43:16.041Z,102934.47
2023-01-23T02:46:26.630Z,102932.75
2023-01-23T02:49:30.568Z,102934.44
2023-01-23T02:52:34.232Z,102933.59
2023-01-23T02:55:39.344Z,102938.75
2023-01-23T02:59:02.209Z,102946.44
2023-01-23T03:02:06.204Z,102947.28
2023-01-23T03:05:10.580Z,102959.31
2023-01-23T03:08:13.565Z,102957.59
2023-01-23T03:11:18.622Z,102955.88
2023-01-23T03:14:24.997Z,102960.16
2023-01-23T03:17:29.182Z,102961.03
2023-01-23T03:20:39.153Z,102961.84
2023-01-23T03:23:44.638Z,102966.16
2023-01-23T03:26:49.706Z,102961.03
2023-01-23T03:30:12.388Z,102971.25
2023-01-23T03:33:16.291Z,102969.56
2023-01-23T03:36:19.341Z,102984.97
2023-01-23T03:39:40.374Z,102990.09
2023-01-23T03:42:43.730Z,102990.97
2023-01-23T03:45:53.179Z,102991.81
2023-01-23T03:48:56.645Z,102993.53
2023-01-23T03:52:00.891Z,103002.94
2023-01-23T03:55:06.534Z,102996.97
2023-01-23T03:58:10.813Z,103012.38
2023-01-23T04:01:18.579Z,103011.50
2023-01-23T04:04:22.097Z,103020.97
2023-01-23T04:07:25.178Z,103017.50
2023-01-23T04:10:29.014Z,103026.06
2023-01-23T04:13:38.639Z,103022.66
2023-01-23T04:16:45.633Z,103025.22
2023-01-23T04:19:49.384Z,103024.31
2023-01-23T04:22:52.404Z,103025.22
2023-01-23T04:25:59.589Z,103026.09
2023-01-23T04:29:02.774Z,103034.63
2023-01-23T04:32:09.547Z,103033.75
2023-01-23T04:35:16.840Z,103031.19
2023-01-23T04:38:20.288Z,103035.50
2023-01-23T04:41:27.167Z,103038.03
2023-01-23T04:44:37.532Z,103039.72
2023-01-23T04:48:02.079Z,103041.47
2023-01-23T04:51:07.791Z,103037.19
2023-01-23T04:54:11.518Z,103031.16
2023-01-23T04:57:14.573Z,103041.47
2023-01-23T05:00:20.135Z,103035.47
2023-01-23T05:03:24.643Z,103045.75
2023-01-23T05:06:28.199Z,103032.91
2023-01-23T05:09:33.238Z,103030.31
2023-01-23T05:12:36.273Z,103034.56
2023-01-23T05:15:40.194Z,103032.03
2023-01-23T05:18:45.066Z,103034.59
2023-01-23T05:21:48.254Z,103039.72
2023-01-23T05:24:54.264Z,103038.03
2023-01-23T05:27:57.593Z,103039.72
2023-01-23T05:31:01.439Z,103041.44
2023-01-23T05:34:15.424Z,103043.13
2023-01-23T05:37:18.452Z,103039.75
2023-01-23T05:40:56.395Z,103035.47
2023-01-23T05:44:25.336Z,103027.72
2023-01-23T05:47:32.459Z,103033.72
2023-01-23T05:50:37.596Z,103041.47
2023-01-23T05:53:40.647Z,103040.59
2023-01-23T05:56:44.330Z,103044.00
2023-01-23T06:00:07.854Z,103053.38
2023-01-23T06:03:43.111Z,103059.38
2023-01-23T06:07:10.425Z,103060.28
2023-01-23T06:10:13.592Z,103068.00
2023-01-23T06:13:16.702Z,103079.97
2023-01-23T06:16:19.954Z,103086.78
2023-01-23T06:19:23.117Z,103087.69
2023-01-23T06:22:30.064Z,103091.06
2023-01-23T06:25:39.763Z,103094.50
2023-01-23T06:28:45.700Z,103094.53
2023-01-23T06:31:49.581Z,103087.72
2023-01-23T06:34:54.210Z,103083.41
2023-01-23T06:37:58.610Z,103095.38
2023-01-23T06:41:02.071Z,103089.38
2023-01-23T06:44:22.444Z,103097.94
2023-01-23T06:47:26.646Z,103102.22
2023-01-23T06:50:35.014Z,103109.06
2023-01-23T06:53:39.712Z,103108.19
2023-01-23T06:56:42.969Z,103120.16
2023-01-23T06:59:48.452Z,103112.47
2023-01-23T07:02:58.825Z,103112.50
2023-01-23T07:06:06.591Z,103121.00
2023-01-23T07:09:11.345Z,103118.44
2023-01-23T07:12:14.885Z,103128.72
2023-01-23T07:15:18.707Z,103130.41
2023-01-23T07:18:22.860Z,103130.38
2023-01-23T07:21:26.288Z,103144.13
2023-01-23T07:24:32.664Z,103144.97
2023-01-23T07:27:36.273Z,103150.06
2023-01-23T07:31:25.533Z,103160.31
2023-01-23T07:34:25.221Z,103152.56
2023-01-23T07:37:28.225Z,103150.00
2023-01-23T07:40:32.645Z,103146.59
2023-01-23T07:43:35.701Z,103143.19
2023-01-23T07:46:38.837Z,103144.03
2023-01-23T07:49:42.208Z,103148.31
2023-01-23T07:52:45.377Z,103147.53
2023-01-23T07:55:49.723Z,103144.13
2023-01-23T07:58:54.750Z,103143.34
2023-01-23T08:02:02.026Z,103139.91
2023-01-23T08:05:08.633Z,103145.00
2023-01-23T08:08:13.781Z,103148.44
2023-01-23T08:11:18.453Z,103145.78
2023-01-23T08:14:24.864Z,103144.13
2023-01-23T08:17:28.070Z,103150.09
2023-01-23T08:20:31.087Z,103157.78
2023-01-23T08:23:35.875Z,103150.06
2023-01-23T08:26:41.778Z,103165.47
2023-01-23T08:29:45.510Z,103171.47
2023-01-23T08:32:51.863Z,103174.00
2023-01-23T08:35:58.411Z,103179.16
2023-01-23T08:39:01.576Z,103179.22
2023-01-23T08:42:06.200Z,103188.63
2023-01-23T08:45:10.742Z,103190.34
2023-01-23T08:48:13.974Z,103204.84
2023-01-23T08:51:17.286Z,103209.97
2023-01-23T08:54:25.725Z,103211.75
2023-01-23T08:57:31.180Z,103223.78
2023-01-23T09:00:35.309Z,103225.53
2023-01-23T09:03:39.364Z,103231.56
2023-01-23T09:06:42.700Z,103230.69
2023-01-23T09:09:45.897Z,103236.72
2023-01-23T09:12:52.742Z,103248.72
2023-01-23T09:15:55.757Z,103252.16
2023-01-23T09:18:58.732Z,103252.09
2023-01-23T09:22:03.496Z,103253.81
2023-01-23T09:25:08.316Z,103256.44
2023-01-23T09:28:12.959Z,103257.31
2023-01-23T09:31:16.543Z,103262.50
2023-01-23T09:34:20.826Z,103267.56
2023-01-23T09:37:24.269Z,103272.69
2023-01-23T09:40:32.571Z,103271.03
2023-01-23T09:43:46.407Z,103271.06
2023-01-23T09:46:52.607Z,103274.50
2023-01-23T09:50:00.919Z,103271.03
2023-01-23T09:53:13.157Z,103277.06
2023-01-23T09:56:30.564Z,103272.81
2023-01-23T09:59:53.968Z,103275.34
2023-01-23T10:03:04.732Z,103282.25
2023-01-23T10:06:23.499Z,103283.09
2023-01-23T10:09:43.335Z,103287.38
2023-01-23T10:12:58.981Z,103285.72
2023-01-23T10:16:21.799Z,103286.59
2023-01-23T10:19:42.959Z,103287.47
2023-01-23T10:22:55.586Z,103283.19
2023-01-23T10:25:59.505Z,103291.78
2023-01-23T10:29:13.090Z,103291.78
2023-01-23T10:32:28.941Z,103302.09
2023-01-23T10:35:41.190Z,103300.38
2023-01-23T10:38:53.370Z,103299.56
2023-01-23T10:42:02.565Z,103303.84
2023-01-23T10:45:08.584Z,103299.59
2023-01-23T10:48:40.351Z,103301.22
2023-01-23T10:51:48.220Z,103299.56
2023-01-23T10:54:51.164Z,103299.53
2023-01-23T10:57:56.985Z,103296.97
2023-01-23T11:01:04.856Z,103299.53
2023-01-23T11:04:20.967Z,103299.53
2023-01-23T11:07:25.676Z,103293.56
2023-01-23T11:10:53.348Z,103291.00
2023-01-23T11:14:12.577Z,103297.03
2023-01-23T11:17:21.416Z,103297.00
2023-01-23T11:20:31.309Z,103297.03
2023-01-23T11:23:35.569Z,103291.00
2023-01-23T11:26:39.904Z,103289.25
2023-01-23T11:30:14.685Z,103287.50
2023-01-23T11:33:35.852Z,103291.78
2023-01-23T11:36:53.551Z,103295.25
2023-01-23T11:40:04.863Z,103295.22
2023-01-23T11:43:15.167Z,103285.78
2023-01-23T11:46:38.177Z,103286.69
2023-01-23T11:50:04.305Z,103285.91
2023-01-23T11:53:27.875Z,103278.19
2023-01-23T11:56:57.649Z,103279.00
2023-01-23T12:00:17.465Z,103285.00
2023-01-23T12:04:19.370Z,103269.66
2023-01-23T12:08:03.831Z,103264.50
2023-01-23T12:11:16.762Z,103260.25
2023-01-23T12:14:27.773Z,103255.94
2023-01-23T12:17:43.763Z,103255.94
2023-01-23T12:21:01.314Z,103255.09
2023-01-23T12:24:19.301Z,103259.41
2023-01-23T12:27:37.509Z,103259.34
2023-01-23T12:31:20.244Z,103265.34
2023-01-23T12:34:46.450Z,103262.78
2023-01-23T12:38:07.926Z,103258.53
2023-01-23T12:41:22.287Z,103257.69
2023-01-23T12:44:36.040Z,103259.41
2023-01-23T12:47:44.270Z,103258.56
2023-01-23T12:50:52.811Z,103250.84
2023-01-23T12:53:59.724Z,103252.59
2023-01-23T12:57:05.947Z,103254.34
2023-01-23T13:00:24.323Z,103256.09
2023-01-23T13:03:58.634Z,103257.72
2023-01-23T13:07:23.636Z,103262.91
2023-01-23T13:11:16.411Z,103271.50
2023-01-23T13:14:31.475Z,103274.88
2023-01-23T13:17:49.334Z,103274.03
2023-01-23T13:21:16.449Z,103275.75
2023-01-23T13:25:03.363Z,103286.81
2023-01-23T13:28:44.592Z,103285.16
2023-01-23T13:31:51.705Z,103291.13
2023-01-23T13:34:56.383Z,103279.16
2023-01-23T13:38:00.367Z,103281.69
2023-01-23T13:41:39.091Z,103275.72
2023-01-23T13:45:27.241Z,103280.03
2023-01-23T14:21:18.705Z,103300.47
2023-01-23T14:24:25.069Z,103298.75
2023-01-23T14:27:52.286Z,103293.66
2023-01-23T14:31:06.215Z,103297.09
2023-01-23T14:34:18.997Z,103300.47
2023-01-23T14:37:26.901Z,103300.47
2023-01-23T14:40:40.077Z,103302.22
2023-01-23T14:43:51.689Z,103302.22
2023-01-23T14:47:04.184Z,103303.06
2023-01-23T14:50:23.173Z,103303.03
2023-01-23T14:53:30.755Z,103301.34
2023-01-23T14:56:39.311Z,103305.63
2023-01-23T14:59:50.680Z,103309.94
2023-01-23T15:02:57.307Z,103311.59
2023-01-23T15:06:09.333Z,103317.59
2023-01-23T15:09:18.885Z,103316.75
2023-01-23T15:12:25.001Z,103317.63
2023-01-23T15:15:31.202Z,103322.75
2023-01-23T15:18:37.597Z,103326.19
2023-01-23T15:21:43.864Z,103328.78
2023-01-23T15:24:50.655Z,103327.88
2023-01-23T15:27:58.952Z,103331.25
2023-01-23T15:31:05.135Z,103332.94
2023-01-23T15:34:27.873Z,103344.16
2023-01-23T15:37:31.060Z,103341.53
2023-01-23T15:40:36.742Z,103339.84
2023-01-23T15:43:39.865Z,103345.81
2023-01-23T15:46:52.264Z,103341.50
2023-01-23T15:49:55.587Z,103344.91
2023-01-23T15:52:58.774Z,103350.06
2023-01-23T15:56:05.030Z,103348.38
2023-01-23T15:59:14.578Z,103348.38
2023-01-23T16:02:30.752Z,103351.75
2023-01-23T16:05:37.227Z,103340.63
2023-01-23T16:08:43.664Z,103340.59
2023-01-23T16:11:47.064Z,103340.59
2023-01-23T16:14:50.108Z,103342.28
2023-01-23T16:17:55.231Z,103338.78
2023-01-23T16:21:00.971Z,103337.91
2023-01-23T16:24:11.349Z,103334.44
2023-01-23T16:27:31.015Z,103339.63
2023-01-23T16:31:08.269Z,103337.91
2023-01-23T16:34:24.067Z,103340.44
2023-01-23T16:37:30.794Z,103337.06
2023-01-23T16:40:38.106Z,103347.38
2023-01-23T16:44:20.183Z,103338.81
2023-01-23T16:47:31.781Z,103338.78
2023-01-23T16:51:18.923Z,103345.59
2023-01-23T16:54:31.532Z,103337.88
2023-01-23T16:57:45.098Z,103339.53
2023-01-23T17:01:02.818Z,103342.97
2023-01-23T17:04:07.985Z,103348.09
2023-01-23T17:07:26.342Z,103351.53
2023-01-23T17:10:45.621Z,103365.25
2023-01-23T17:13:56.033Z,103360.03
2023-01-23T17:17:07.442Z,103358.34
2023-01-23T17:20:15.143Z,103356.56
2023-01-23T17:23:20.725Z,103354.84
2023-01-23T17:26:25.284Z,103359.22
2023-01-23T17:29:31.824Z,103357.53
2023-01-23T17:32:47.547Z,103351.56
2023-01-23T17:35:56.266Z,103347.25
2023-01-23T17:39:07.721Z,103356.63
2023-01-23T17:42:16.524Z,103352.28
2023-01-23T17:45:26.733Z,103362.56
2023-01-23T17:48:36.420Z,103357.38
2023-01-23T17:51:46.101Z,103363.38
2023-01-23T17:54:51.270Z,103360.81
2023-01-23T17:57:54.760Z,103365.97
2023-01-23T18:00:59.435Z,103368.56
2023-01-23T18:04:12.360Z,103353.91
2023-01-23T18:07:16.117Z,103358.22
2023-01-23T18:10:22.631Z,103356.50
2023-01-23T18:13:37.924Z,103355.66
2023-01-23T18:16:45.647Z,103352.16
2023-01-23T18:19:52.119Z,103355.66
2023-01-23T18:22:56.824Z,103354.84
2023-01-23T18:26:22.159Z,103358.28
2023-01-23T18:30:51.144Z,103360.00
2023-01-23T18:34:34.501Z,103351.31
2023-01-23T18:37:57.460Z,103352.13
2023-01-23T18:41:15.371Z,103358.13
2023-01-23T18:44:31.417Z,103352.16
2023-01-23T18:47:38.103Z,103354.78
2023-01-23T18:50:49.151Z,103359.06
2023-01-23T18:54:07.552Z,103359.81
2023-01-23T18:57:58.143Z,103355.56
2023-01-23T19:01:26.887Z,103363.31
2023-01-23T19:04:45.952Z,103360.69
2023-01-23T19:08:01.788Z,103359.84
2023-01-23T19:11:20.347Z,103353.81
2023-01-23T19:15:05.833Z,103358.06
2023-01-23T19:18:39.220Z,103359.81
2023-01-23T19:21:46.703Z,103362.41
2023-01-23T19:24:52.732Z,103362.44
2023-01-23T19:27:58.614Z,103363.19
2023-01-23T19:31:09.745Z,103364.97
2023-01-23T19:34:12.983Z,103373.53
2023-01-23T19:37:15.995Z,103373.47
2023-01-23T19:40:21.374Z,103373.47
2023-01-23T19:43:28.097Z,103376.91
2023-01-23T19:46:35.845Z,103377.81
2023-01-23T19:49:39.169Z,103378.66
2023-01-23T19:52:45.414Z,103388.19
2023-01-23T19:55:48.428Z,103397.50
2023-01-23T19:58:51.757Z,103384.66
2023-01-23T20:01:56.396Z,103395.78
2023-01-23T20:04:59.639Z,103400.06
2023-01-23T20:08:08.411Z,103390.59
2023-01-23T20:11:13.015Z,103390.59
2023-01-23T20:14:23.599Z,103400.84
2023-01-23T20:17:28.859Z,103398.34
2023-01-23T20:20:32.282Z,103402.63
2023-01-23T20:23:35.503Z,103400.84
2023-01-23T20:26:39.259Z,103410.28
2023-01-23T20:29:42.543Z,103415.47
2023-01-23T20:32:46.914Z,103419.69
2023-01-23T20:35:52.676Z,103421.47
2023-01-23T20:38:58.468Z,103421.41
2023-01-23T20:42:02.065Z,103424.88
2023-01-23T20:45:07.215Z,103423.09
2023-01-23T20:48:11.577Z,103423.13
2023-01-23T20:51:17.104Z,103426.53
2023-01-23T20:54:21.749Z,103424.81
2023-01-23T20:57:45.499Z,103435.16
2023-01-23T21:00:49.130Z,103434.19
2023-01-23T21:03:53.951Z,103430.03
2023-01-23T21:06:57.608Z,103439.50
2023-01-23T21:10:00.708Z,103444.63
2023-01-23T21:13:03.708Z,103443.75
2023-01-23T21:16:09.883Z,103454.00
2023-01-23T21:19:14.864Z,103448.78
2023-01-23T21:22:18.665Z,103445.38
2023-01-23T21:25:22.755Z,103451.28
2023-01-23T21:28:26.554Z,103450.47
2023-01-23T21:31:33.756Z,103447.06
2023-01-23T21:34:38.555Z,103441.00
2023-01-23T21:37:43.217Z,103440.09
2023-01-23T21:40:46.587Z,103437.47
2023-01-23T21:43:50.475Z,103429.81
2023-01-23T21:46:56.548Z,103428.06
2023-01-23T21:50:00.954Z,103430.59
2023-01-23T21:53:04.276Z,103433.25
2023-01-23T21:56:09.723Z,103426.34
2023-01-23T21:59:12.972Z,103429.75
2023-01-23T22:02:16.987Z,103419.41
2023-01-23T22:05:22.007Z,103419.34
2023-01-23T22:08:25.625Z,103416.78
2023-01-23T22:11:28.665Z,103407.44
2023-01-23T22:14:32.403Z,103411.78
2023-01-23T22:17:35.964Z,103401.53
2023-01-23T22:20:42.025Z,103405.78
2023-01-23T22:23:45.559Z,103419.44
2023-01-23T22:26:51.489Z,103418.56
2023-01-23T22:29:55.239Z,103427.94
2023-01-23T22:32:58.652Z,103424.41
2023-01-23T22:36:08.080Z,103427.94
2023-01-23T22:39:20.166Z,103431.34
2023-01-23T22:42:24.903Z,103430.41
2023-01-23T22:45:29.917Z,103427.78
2023-01-23T22:48:34.676Z,103431.19
2023-01-23T22:51:39.156Z,103431.19
2023-01-23T22:54:42.966Z,103424.28
2023-01-23T22:57:46.394Z,103426.97
2023-01-23T23:00:52.382Z,103422.72
2023-01-23T23:03:59.524Z,103429.59
2023-01-23T23:07:03.942Z,103431.28
2023-01-23T23:10:14.166Z,103443.16
2023-01-23T23:13:18.699Z,103439.69
2023-01-23T23:16:25.894Z,103431.13
2023-01-23T23:19:29.031Z,103428.56
2023-01-23T23:22:35.588Z,103425.97
2023-01-23T23:25:38.963Z,103425.91
2023-01-23T23:28:42.958Z,103417.31
2023-01-23T23:31:47.110Z,103413.84
2023-01-23T23:34:50.287Z,103415.50
2023-01-23T23:37:54.863Z,103412.16
2023-01-23T23:41:02.311Z,103420.66
2023-01-23T23:44:05.664Z,103419.75
2023-01-23T23:47:13.685Z,103414.66
2023-01-23T23:50:18.002Z,103413.72
2023-01-23T23:53:23.679Z,103415.44
2023-01-23T23:56:32.151Z,103412.88
2023-01-23T23:59:35.281Z,103417.19
